Terminal Aerodrome Forecast
Issued by NWS Louisville, KY

Home | Current Version | Previous Version | Text Only | Print | Product List | Glossary On
Versions: 1 2 3 4 5 6 7 8 9 10 11 12 13
000
FTUS43 KLMK 050109 AAA
TAFSDF
TAF AMD
KSDF 050109Z 0501/0606 VRB03KT P6SM FEW050
      TEMPO 0502/0503 02015G25KT 6SM -SHRA
     FM050600 VRB03KT 5SM HZ SKC
     FM051500 11005KT P6SM SCT050
     FM060000 07006KT P6SM FEW050=

USA.gov is the U.S. government's official web portal to all federal, state and local government web resources and services.